createdAt,value
2018-04-17T00:00:24.968Z,90.90
2018-04-17T00:02:53.510Z,90.97
2018-04-17T00:05:21.954Z,90.95
2018-04-17T00:07:50.070Z,90.93
2018-04-17T00:10:18.935Z,91.05
2018-04-17T00:12:46.440Z,91.22
2018-04-17T00:15:19.019Z,91.45
2018-04-17T00:17:46.959Z,91.83
2018-04-17T00:20:14.475Z,91.75
2018-04-17T00:22:42.269Z,91.88
2018-04-17T00:25:09.855Z,91.90
2018-04-17T00:27:37.329Z,91.83
2018-04-17T00:30:05.081Z,91.85
2018-04-17T00:32:32.549Z,91.73
2018-04-17T00:35:00.029Z,91.59
2018-04-17T00:37:28.096Z,91.46
2018-04-17T00:39:55.638Z,91.27
2018-04-17T00:42:23.790Z,91.05
2018-04-17T00:44:51.311Z,91.03
2018-04-17T00:47:18.817Z,90.97
2018-04-17T00:49:47.329Z,90.74
2018-04-17T00:52:14.992Z,90.92
2018-04-17T00:54:42.450Z,90.92
2018-04-17T00:57:10.122Z,90.89
2018-04-17T00:59:37.576Z,90.83
2018-04-17T01:02:05.091Z,90.88
2018-04-17T01:04:32.618Z,90.67
2018-04-17T01:07:00.087Z,90.57
2018-04-17T01:09:27.558Z,90.49
2018-04-17T01:11:55.017Z,90.48
2018-04-17T01:14:22.551Z,90.33
2018-04-17T01:16:49.999Z,90.17
2018-04-17T01:19:17.581Z,90.16
2018-04-17T01:21:45.119Z,90.22
2018-04-17T01:24:12.630Z,90.17
2018-04-17T01:26:40.170Z,90.11
2018-04-17T01:29:07.696Z,90.03
2018-04-17T01:31:35.158Z,89.87
2018-04-17T01:34:02.796Z,89.11
2018-04-17T01:36:30.314Z,88.81
2018-04-17T01:38:57.893Z,89.24
2018-04-17T01:41:25.399Z,89.32
2018-04-17T01:43:53.091Z,89.28
2018-04-17T01:46:20.616Z,89.36
2018-04-17T01:48:48.135Z,88.75
2018-04-17T01:51:15.612Z,88.79
2018-04-17T01:53:43.206Z,88.59
2018-04-17T01:56:10.700Z,88.38
2018-04-17T01:58:38.191Z,88.93
2018-04-17T02:01:05.762Z,89.04
2018-04-17T02:03:33.279Z,89.13
2018-04-17T02:06:00.983Z,89.27
2018-04-17T02:08:28.536Z,89.35
2018-04-17T02:10:56.016Z,89.17
2018-04-17T02:13:23.488Z,89.12
2018-04-17T02:15:51.029Z,88.87
2018-04-17T02:18:18.975Z,88.90
2018-04-17T02:20:46.555Z,89.06
2018-04-17T02:23:14.248Z,89.17
2018-04-17T02:25:41.774Z,89.11
2018-04-17T02:28:11.840Z,89.10
2018-04-17T02:30:39.647Z,89.12
2018-04-17T02:33:07.413Z,89.00
2018-04-17T02:35:34.973Z,89.03
2018-04-17T02:38:08.057Z,89.18
2018-04-17T02:40:35.705Z,89.05
2018-04-17T02:43:04.303Z,89.17
2018-04-17T02:45:36.735Z,89.09
2018-04-17T02:48:04.427Z,88.97
2018-04-17T02:50:31.969Z,88.90
2018-04-17T02:52:59.778Z,88.91
2018-04-17T03:07:07.495Z,89.54
2018-04-17T03:09:35.419Z,89.35
2018-04-17T03:12:02.924Z,89.29
2018-04-17T03:14:30.595Z,89.14
2018-04-17T03:16:58.096Z,89.10
2018-04-17T03:19:25.620Z,88.78
2018-04-17T03:21:54.102Z,88.68
2018-04-17T03:24:21.698Z,88.56
2018-04-17T03:26:49.759Z,88.61
2018-04-17T03:29:17.348Z,88.04
2018-04-17T03:31:44.927Z,88.01
2018-04-17T03:34:13.405Z,88.48
2018-04-17T03:36:40.942Z,88.72
2018-04-17T03:39:08.514Z,88.55
2018-04-17T03:41:36.391Z,88.85
2018-04-17T03:44:04.012Z,88.88
2018-04-17T03:46:31.839Z,88.87
2018-04-17T03:49:00.014Z,88.88
2018-04-17T03:51:27.630Z,89.03
2018-04-17T03:53:55.297Z,89.06
2018-04-17T03:56:22.946Z,89.27
2018-04-17T03:58:50.635Z,89.13
2018-04-17T04:01:18.251Z,89.28
2018-04-17T04:03:45.753Z,89.24
2018-04-17T04:06:13.213Z,89.49
2018-04-17T04:08:42.671Z,89.60
2018-04-17T04:11:10.156Z,89.70
2018-04-17T04:13:37.894Z,89.85
2018-04-17T04:16:06.102Z,89.94
2018-04-17T04:18:45.767Z,90.04
2018-04-17T04:21:25.098Z,90.05
2018-04-17T04:24:09.466Z,90.05
2018-04-17T04:26:36.992Z,90.17
2018-04-17T04:29:04.479Z,90.21
2018-04-17T04:31:31.952Z,90.10
2018-04-17T04:33:59.489Z,90.40
2018-04-17T04:36:27.714Z,90.40
2018-04-17T04:38:55.190Z,90.09
2018-04-17T04:41:22.954Z,89.86
2018-04-17T04:43:50.419Z,89.99
2018-04-17T04:46:18.700Z,90.40
2018-04-17T04:48:46.572Z,90.32
2018-04-17T04:51:14.036Z,90.13
2018-04-17T04:53:41.539Z,90.30
2018-04-17T04:56:09.362Z,90.12
2018-04-17T04:58:37.024Z,90.17
2018-04-17T05:01:04.780Z,89.88
2018-04-17T05:03:32.472Z,89.80
2018-04-17T05:06:00.200Z,89.55
2018-04-17T05:08:28.028Z,89.54
2018-04-17T05:10:55.520Z,90.00
2018-04-17T05:13:23.254Z,89.95
2018-04-17T05:15:50.739Z,89.89
2018-04-17T05:18:18.621Z,89.66
2018-04-17T05:20:46.113Z,89.82
2018-04-17T05:23:14.015Z,89.84
2018-04-17T05:25:42.379Z,89.88
2018-04-17T05:28:11.539Z,89.84
2018-04-17T05:30:39.140Z,89.70
2018-04-17T05:33:07.505Z,89.69
2018-04-17T05:35:35.148Z,89.92
2018-04-17T05:38:02.619Z,89.89
2018-04-17T05:40:30.147Z,89.43
2018-04-17T05:42:57.599Z,89.16
2018-04-17T05:45:25.115Z,89.14
2018-04-17T05:47:55.921Z,89.56
2018-04-17T05:50:23.489Z,89.18
2018-04-17T05:52:51.489Z,89.08
2018-04-17T05:55:19.187Z,89.12
2018-04-17T05:57:47.381Z,89.09
2018-04-17T06:00:14.928Z,89.18
2018-04-17T06:02:42.431Z,88.94
2018-04-17T06:05:09.918Z,89.12
2018-04-17T06:07:37.459Z,89.15
2018-04-17T06:10:05.675Z,89.29
2018-04-17T06:12:34.559Z,89.24
2018-04-17T06:15:03.439Z,89.22
2018-04-17T06:17:30.922Z,89.40
2018-04-17T06:19:58.511Z,89.11
2018-04-17T06:22:26.923Z,88.59
2018-04-17T06:27:52.697Z,88.40
2018-04-17T06:30:20.413Z,88.21
2018-04-17T06:32:50.694Z,88.04
2018-04-17T06:35:18.428Z,88.09
2018-04-17T06:37:46.002Z,88.16
2018-04-17T06:40:13.574Z,88.55
2018-04-17T06:42:42.235Z,87.70
2018-04-17T06:45:33.486Z,87.02
2018-04-17T06:48:00.950Z,85.72
2018-04-17T06:50:28.673Z,85.62
2018-04-17T06:52:56.156Z,85.41
2018-04-17T06:55:38.438Z,84.78
2018-04-17T06:58:06.002Z,84.14
2018-04-17T07:00:33.530Z,83.63
2018-04-17T07:03:01.555Z,82.81
2018-04-17T07:05:52.769Z,82.92
2018-04-17T07:08:20.277Z,82.75
2018-04-17T07:10:50.313Z,82.03
2018-04-17T07:13:18.569Z,81.83
2018-04-17T07:15:46.181Z,82.01
2018-04-17T07:18:14.705Z,82.03
2018-04-17T07:20:42.505Z,81.78
2018-04-17T07:23:10.195Z,81.51
2018-04-17T07:25:37.707Z,81.00
2018-04-17T07:28:05.253Z,81.08
2018-04-17T07:30:32.829Z,81.18
2018-04-17T07:33:00.337Z,80.94
2018-04-17T07:35:27.900Z,80.85
2018-04-17T07:37:55.486Z,79.47
2018-04-17T07:40:24.010Z,79.66
2018-04-17T07:42:52.039Z,79.51
2018-04-17T07:45:19.770Z,79.61
2018-04-17T07:47:56.723Z,80.18
2018-04-17T07:50:24.233Z,80.35
2018-04-17T07:52:51.765Z,79.51
2018-04-17T07:55:19.254Z,79.11
2018-04-17T07:57:47.510Z,79.18
2018-04-17T08:00:14.989Z,78.61
2018-04-17T08:02:42.551Z,77.76
2018-04-17T08:05:10.044Z,77.96
2018-04-17T08:07:37.524Z,76.27
2018-04-17T08:10:05.797Z,75.19
2018-04-17T08:12:33.331Z,75.72
2018-04-17T08:15:00.829Z,75.38
2018-04-17T08:17:28.366Z,75.40
2018-04-17T08:19:56.113Z,74.74
2018-04-17T08:22:23.643Z,74.53
2018-04-17T08:24:51.155Z,74.71
2018-04-17T08:27:19.474Z,73.69
2018-04-17T08:29:47.106Z,74.27
2018-04-17T08:32:15.538Z,72.74
2018-04-17T08:34:43.882Z,72.60
2018-04-17T08:37:11.927Z,71.17
2018-04-17T08:39:40.202Z,71.72
2018-04-17T08:42:08.932Z,71.02
2018-04-17T08:44:36.401Z,70.35
2018-04-17T08:47:03.854Z,70.09
2018-04-17T08:49:31.434Z,70.18
2018-04-17T08:51:59.029Z,69.21
2018-04-17T08:54:26.567Z,70.09
2018-04-17T08:56:54.027Z,69.62
2018-04-17T08:59:21.514Z,68.81
2018-04-17T09:01:49.938Z,68.84
2018-04-17T09:04:17.437Z,68.55
2018-04-17T09:06:44.912Z,67.81
2018-04-17T09:09:12.858Z,67.82
2018-04-17T09:11:40.364Z,68.30
2018-04-17T09:14:07.958Z,68.38
2018-04-17T09:16:35.512Z,68.69
2018-04-17T09:19:03.368Z,67.64
2018-04-17T09:21:30.848Z,66.95
2018-04-17T09:23:58.536Z,65.04
2018-04-17T09:26:25.983Z,65.45
2018-04-17T09:28:53.430Z,64.32
2018-04-17T09:31:20.995Z,64.60
2018-04-17T09:33:48.514Z,64.34
2018-04-17T09:36:16.629Z,63.38
2018-04-17T09:38:44.137Z,63.33
2018-04-17T09:41:11.693Z,64.28
2018-04-17T09:43:39.158Z,65.33
2018-04-17T09:46:06.667Z,65.74
2018-04-17T09:48:34.141Z,64.06
2018-04-17T09:51:01.670Z,63.64
2018-04-17T09:53:29.996Z,62.80
2018-04-17T09:55:57.563Z,60.90
2018-04-17T09:58:25.123Z,61.16
2018-04-17T10:01:04.320Z,60.43
2018-04-17T10:03:31.834Z,61.08
2018-04-17T10:06:00.715Z,60.10
2018-04-17T10:08:28.276Z,59.10
2018-04-17T10:10:55.722Z,58.34
2018-04-17T10:13:23.238Z,58.07
2018-04-17T10:15:50.746Z,57.71
2018-04-17T10:18:18.219Z,56.67
2018-04-17T10:20:45.701Z,55.53
2018-04-17T10:23:13.229Z,54.71
2018-04-17T10:25:40.964Z,54.11
2018-04-17T10:28:08.694Z,53.73
2018-04-17T10:30:36.363Z,54.84
2018-04-17T10:33:03.892Z,55.16
2018-04-17T10:35:31.343Z,52.46
2018-04-17T10:37:58.904Z,51.10
2018-04-17T10:40:26.362Z,51.88
2018-04-17T10:42:53.904Z,50.73
2018-04-17T10:45:21.384Z,48.83
2018-04-17T10:47:48.876Z,48.34
2018-04-17T10:50:16.328Z,48.27
2018-04-17T10:52:43.816Z,48.43
2018-04-17T10:55:11.308Z,49.17
2018-04-17T10:57:38.844Z,49.18
2018-04-17T11:00:06.308Z,49.26
2018-04-17T11:02:33.838Z,51.50
2018-04-17T11:05:01.324Z,53.25
2018-04-17T11:07:28.817Z,53.93
2018-04-17T11:09:56.290Z,53.41
2018-04-17T11:12:23.761Z,52.17
2018-04-17T11:14:51.304Z,51.33
2018-04-17T11:17:18.911Z,50.56
2018-04-17T11:19:46.392Z,48.32
2018-04-17T11:22:13.925Z,46.38
2018-04-17T11:24:41.408Z,43.85
2018-04-17T11:27:08.861Z,38.92
2018-04-17T11:29:36.362Z,40.15
2018-04-17T11:32:03.862Z,37.93
2018-04-17T11:34:31.445Z,36.32
2018-04-17T11:36:58.927Z,34.09
2018-04-17T11:39:26.400Z,34.35
2018-04-17T11:41:54.012Z,36.18
2018-04-17T11:44:21.528Z,39.67
2018-04-17T11:46:49.093Z,42.66
2018-04-17T11:49:16.628Z,45.52
2018-04-17T11:51:44.140Z,48.44
2018-04-17T11:54:11.623Z,48.88
2018-04-17T11:56:39.110Z,48.85
2018-04-17T11:59:06.614Z,50.54
2018-04-17T12:01:34.088Z,51.37
2018-04-17T12:04:01.638Z,51.52
2018-04-17T12:06:29.233Z,53.29
2018-04-17T12:08:57.580Z,54.65
2018-04-17T12:11:25.092Z,55.72
2018-04-17T12:13:52.942Z,56.51
2018-04-17T12:16:20.407Z,56.39
2018-04-17T12:18:47.923Z,56.72
2018-04-17T12:21:15.380Z,57.22
2018-04-17T12:23:42.948Z,58.23
2018-04-17T12:26:10.554Z,58.36
2018-04-17T12:28:38.039Z,58.34
2018-04-17T12:31:05.550Z,58.17
2018-04-17T12:33:33.085Z,58.62
2018-04-17T12:36:00.593Z,59.15
2018-04-17T12:38:28.080Z,58.33
2018-04-17T12:40:55.543Z,58.00
2018-04-17T12:43:23.015Z,57.34
2018-04-17T12:45:50.467Z,53.49
2018-04-17T12:48:17.963Z,48.44
2018-04-17T12:50:45.408Z,47.73
2018-04-17T12:53:12.879Z,48.40
2018-04-17T12:55:40.495Z,47.85
2018-04-17T12:58:07.981Z,48.35
2018-04-17T13:00:35.455Z,49.62
2018-04-17T13:03:02.915Z,51.65
2018-04-17T13:05:30.406Z,53.65
2018-04-17T13:07:57.891Z,55.25
2018-04-17T13:10:25.502Z,55.88
2018-04-17T13:12:53.049Z,56.53
2018-04-17T13:15:20.495Z,52.85
2018-04-17T13:17:47.992Z,49.04
2018-04-17T13:20:15.472Z,47.67
2018-04-17T13:22:42.934Z,48.06
2018-04-17T13:25:10.425Z,48.18
2018-04-17T13:27:37.877Z,48.35
2018-04-17T13:30:05.426Z,48.11
2018-04-17T13:32:32.903Z,47.17
2018-04-17T13:35:00.383Z,46.94
2018-04-17T13:37:27.897Z,46.15
2018-04-17T13:39:55.374Z,45.52
2018-04-17T13:42:22.852Z,45.71
2018-04-17T13:44:50.393Z,44.96
2018-04-17T13:47:17.899Z,45.19
2018-04-17T13:49:45.352Z,44.96
2018-04-17T13:52:12.868Z,44.18
2018-04-17T13:54:40.372Z,44.27
2018-04-17T13:57:07.848Z,44.65
2018-04-17T13:59:35.300Z,44.35
2018-04-17T14:02:02.818Z,44.98
2018-04-17T14:04:30.400Z,44.66
2018-04-17T14:06:58.706Z,44.74
2018-04-17T14:09:26.285Z,44.16
2018-04-17T14:11:53.964Z,44.01
2018-04-17T14:14:21.533Z,43.70
2018-04-17T14:16:49.172Z,44.01
2018-04-17T14:19:16.670Z,44.14
2018-04-17T14:21:44.206Z,44.23
2018-04-17T14:24:11.669Z,44.74
2018-04-17T14:26:39.537Z,44.88
2018-04-17T14:29:07.012Z,44.32
2018-04-17T14:31:34.527Z,44.19
2018-04-17T14:34:02.026Z,44.94
2018-04-17T14:36:29.505Z,45.26
2018-04-17T14:38:57.937Z,45.62
2018-04-17T14:41:25.434Z,46.11
2018-04-17T14:43:52.959Z,45.64
2018-04-17T14:46:20.411Z,45.76
2018-04-17T14:48:47.904Z,45.70
2018-04-17T14:51:15.400Z,46.13
2018-04-17T14:53:43.082Z,46.55
2018-04-17T14:56:10.599Z,47.69
2018-04-17T14:58:38.054Z,48.06
2018-04-17T15:01:05.507Z,47.61
2018-04-17T15:03:33.004Z,48.76
2018-04-17T15:06:00.490Z,49.21
2018-04-17T15:08:27.990Z,50.03
2018-04-17T15:10:55.504Z,50.04
2018-04-17T15:13:23.012Z,49.51
2018-04-17T15:15:50.544Z,50.15
2018-04-17T15:18:18.023Z,50.31
2018-04-17T15:20:45.577Z,50.57
2018-04-17T15:23:13.042Z,50.61
2018-04-17T15:25:40.595Z,50.62
2018-04-17T15:28:08.117Z,50.91
2018-04-17T15:30:35.654Z,50.82
2018-04-17T15:33:03.150Z,51.19
2018-04-17T15:35:30.612Z,50.45
2018-04-17T15:37:58.081Z,48.94
2018-04-17T15:40:25.590Z,49.72
2018-04-17T15:42:53.047Z,49.56
2018-04-17T15:45:20.621Z,48.78
2018-04-17T15:47:48.097Z,48.94
2018-04-17T15:50:15.823Z,48.36
2018-04-17T15:52:43.289Z,48.78
2018-04-17T15:55:10.933Z,49.49
2018-04-17T15:57:38.395Z,49.76
2018-04-17T16:00:05.882Z,50.09
2018-04-17T16:02:33.349Z,50.92
2018-04-17T16:05:00.872Z,51.87
2018-04-17T16:07:28.447Z,52.28
2018-04-17T16:09:55.942Z,52.68
2018-04-17T16:12:23.529Z,52.92
2018-04-17T16:14:52.029Z,52.33
2018-04-17T16:17:20.205Z,53.08
2018-04-17T16:19:47.683Z,53.58
2018-04-17T16:22:15.136Z,54.00
2018-04-17T16:24:42.610Z,54.23
2018-04-17T16:27:10.171Z,54.21
2018-04-17T16:29:37.661Z,54.37
2018-04-17T16:32:05.119Z,54.31
2018-04-17T16:34:32.605Z,54.50
2018-04-17T16:37:00.067Z,54.09
2018-04-17T16:39:27.537Z,54.11
2018-04-17T16:41:55.003Z,54.31
2018-04-17T16:44:22.460Z,54.63
2018-04-17T16:46:49.938Z,54.93
2018-04-17T16:49:17.445Z,55.00
2018-04-17T16:51:45.039Z,54.73
2018-04-17T16:54:12.433Z,55.03
2018-04-17T16:56:40.276Z,55.29
2018-04-17T16:59:07.753Z,55.11
2018-04-17T17:01:35.253Z,55.15
2018-04-17T17:04:02.726Z,55.37
2018-04-17T17:06:30.183Z,55.81
2018-04-17T17:08:57.669Z,55.85
2018-04-17T17:11:25.556Z,55.93
2018-04-17T17:13:54.023Z,56.30
2018-04-17T17:16:24.216Z,56.79
2018-04-17T17:18:54.559Z,57.02
2018-04-17T17:21:22.218Z,57.60
2018-04-17T17:23:49.709Z,57.62
2018-04-17T17:26:17.452Z,57.29
2018-04-17T17:28:45.230Z,57.27
2018-04-17T17:31:12.787Z,57.50
2018-04-17T17:33:40.309Z,57.77
2018-04-17T17:36:07.976Z,57.87
2018-04-17T17:38:35.473Z,58.14
2018-04-17T17:41:03.053Z,58.12
2018-04-17T17:43:30.655Z,57.99
2018-04-17T17:45:58.152Z,58.31
2018-04-17T17:48:25.794Z,58.47
2018-04-17T17:50:53.310Z,58.47
2018-04-17T17:53:20.801Z,58.40
2018-04-17T17:55:48.332Z,58.28
2018-04-17T17:58:15.791Z,58.21
2018-04-17T18:00:43.641Z,57.95
2018-04-17T18:03:11.180Z,58.29
2018-04-17T18:05:38.710Z,58.50
2018-04-17T18:08:06.259Z,58.73
2018-04-17T18:10:33.820Z,59.09
2018-04-17T18:13:01.287Z,59.69
2018-04-17T18:15:28.753Z,59.13
2018-04-17T18:17:56.211Z,59.26
2018-04-17T18:20:23.688Z,59.87
2018-04-17T18:22:51.332Z,60.10
2018-04-17T18:25:28.617Z,60.11
2018-04-17T18:27:56.169Z,59.76
2018-04-17T18:30:23.669Z,59.77
2018-04-17T18:32:51.224Z,59.79
2018-04-17T18:35:18.720Z,60.03
2018-04-17T18:37:46.212Z,60.12
2018-04-17T18:40:13.764Z,60.19
2018-04-17T18:42:41.473Z,60.78
2018-04-17T18:45:09.200Z,60.89
2018-04-17T18:47:36.768Z,60.17
2018-04-17T18:50:04.309Z,60.10
2018-04-17T18:52:31.873Z,60.49
2018-04-17T18:54:59.371Z,60.87
2018-04-17T18:57:26.864Z,60.92
2018-04-17T18:59:54.396Z,61.12
2018-04-17T19:02:21.897Z,61.48
2018-04-17T19:04:49.751Z,61.59
2018-04-17T19:07:18.303Z,61.80
2018-04-17T19:09:46.258Z,60.84
2018-04-17T19:12:13.783Z,60.64
2018-04-17T19:14:41.296Z,60.51
2018-04-17T19:17:08.828Z,60.54
2018-04-17T19:19:36.298Z,60.94
2018-04-17T19:22:03.817Z,60.92
2018-04-17T19:24:31.328Z,60.86
2018-04-17T19:26:58.802Z,61.00
2018-04-17T19:29:26.295Z,61.29
2018-04-17T19:31:53.825Z,61.55
2018-04-17T19:34:21.357Z,61.61
2018-04-17T19:36:49.020Z,61.87
2018-04-17T19:39:16.500Z,61.75
2018-04-17T19:41:43.965Z,61.71
2018-04-17T19:44:11.549Z,61.78
2018-04-17T19:46:39.062Z,61.81
2018-04-17T19:49:06.566Z,61.51
2018-04-17T19:51:34.068Z,61.83
2018-04-17T19:54:01.576Z,61.74
2018-04-17T19:56:29.142Z,61.39
2018-04-17T19:58:56.640Z,61.34
2018-04-17T20:01:24.166Z,61.68
2018-04-17T20:03:51.675Z,62.03
2018-04-17T20:06:19.368Z,61.79
2018-04-17T20:08:46.855Z,61.83
2018-04-17T20:11:14.429Z,61.97
2018-04-17T20:13:42.135Z,61.92
2018-04-17T20:16:09.656Z,62.25
2018-04-17T20:18:37.152Z,62.31
2018-04-17T20:21:04.681Z,62.22
2018-04-17T20:23:32.278Z,62.45
2018-04-17T20:25:59.772Z,62.97
2018-04-17T20:28:27.629Z,62.93
2018-04-17T20:30:55.120Z,62.86
2018-04-17T20:33:22.630Z,62.94
2018-04-17T20:35:50.137Z,62.38
2018-04-17T20:38:17.670Z,61.94
2018-04-17T20:40:45.177Z,61.98
2018-04-17T20:43:13.723Z,61.98
2018-04-17T20:45:41.286Z,61.94
2018-04-17T20:48:08.874Z,61.86
2018-04-17T20:50:36.458Z,61.85
2018-04-17T20:53:04.491Z,61.88
2018-04-17T20:55:46.278Z,61.83
2018-04-17T20:58:13.835Z,61.79
2018-04-17T21:00:41.350Z,62.01
2018-04-17T21:03:08.835Z,62.01
2018-04-17T21:05:36.397Z,62.43
2018-04-17T21:08:03.920Z,62.43
2018-04-17T21:10:31.405Z,62.75
2018-04-17T21:12:58.888Z,63.09
2018-04-17T21:15:26.369Z,63.13
2018-04-17T21:17:53.826Z,63.59
2018-04-17T21:20:22.269Z,63.66
2018-04-17T21:22:49.712Z,63.58
2018-04-17T21:25:17.198Z,63.79
2018-04-17T21:27:44.670Z,63.60
2018-04-17T21:30:12.118Z,63.93
2018-04-17T21:32:39.582Z,64.35
2018-04-17T21:35:07.111Z,64.12
2018-04-17T21:37:34.655Z,64.37
2018-04-17T21:40:02.449Z,64.46
2018-04-17T21:42:29.935Z,64.50
2018-04-17T21:44:57.516Z,64.48
2018-04-17T21:47:24.990Z,64.58
2018-04-17T21:49:52.552Z,64.78
2018-04-17T21:52:20.126Z,64.88
2018-04-17T21:54:47.611Z,64.98
2018-04-17T21:57:15.068Z,64.93
2018-04-17T21:59:42.522Z,64.97
2018-04-17T22:02:09.997Z,65.23
2018-04-17T22:04:37.516Z,65.25
2018-04-17T22:07:05.027Z,65.53
2018-04-17T22:09:33.380Z,65.66
2018-04-17T22:12:00.952Z,65.84
2018-04-17T22:14:28.418Z,66.13
2018-04-17T22:16:59.025Z,66.15
2018-04-17T22:19:26.558Z,66.05
2018-04-17T22:21:54.042Z,66.33
2018-04-17T22:24:21.560Z,65.99
2018-04-17T22:26:49.275Z,66.03
2018-04-17T22:29:17.016Z,66.15
2018-04-17T22:31:44.820Z,66.30
2018-04-17T22:34:12.326Z,66.57
2018-04-17T22:36:39.786Z,66.56
2018-04-17T22:39:07.268Z,66.63
2018-04-17T22:41:34.761Z,66.65
2018-04-17T22:44:02.244Z,66.36
2018-04-17T22:46:29.703Z,66.32
2018-04-17T22:48:57.190Z,66.57
2018-04-17T22:51:24.642Z,66.73
2018-04-17T22:53:52.142Z,65.77
2018-04-17T22:56:19.590Z,65.80
2018-04-17T22:58:47.202Z,65.82
2018-04-17T23:01:14.671Z,65.52
2018-04-17T23:03:42.494Z,65.59
2018-04-17T23:06:09.974Z,65.73
2018-04-17T23:08:38.178Z,65.82
2018-04-17T23:11:05.662Z,65.65
2018-04-17T23:13:33.170Z,65.93
2018-04-17T23:16:00.618Z,66.32
2018-04-17T23:18:28.078Z,66.69
2018-04-17T23:20:55.536Z,66.63
2018-04-17T23:23:22.987Z,67.27
2018-04-17T23:25:50.474Z,67.39
2018-04-17T23:28:17.926Z,67.22
2018-04-17T23:30:45.381Z,67.84
2018-04-17T23:33:12.817Z,67.53
2018-04-17T23:35:40.296Z,66.85
2018-04-17T23:38:07.742Z,67.08
2018-04-17T23:40:35.188Z,67.14
2018-04-17T23:43:02.649Z,67.03
2018-04-17T23:45:30.104Z,66.99
2018-04-17T23:47:57.595Z,67.11
2018-04-17T23:50:25.026Z,67.01
2018-04-17T23:52:52.482Z,67.13
2018-04-17T23:55:19.970Z,67.21
2018-04-17T23:57:47.424Z,67.20
